createdAt,value
2023-01-10T00:02:12.492Z,6.19
2023-01-10T00:04:38.738Z,6.15
2023-01-10T00:07:04.945Z,6.18
2023-01-10T00:09:31.135Z,6.22
2023-01-10T00:11:57.327Z,6.17
2023-01-10T00:14:23.517Z,6.15
2023-01-10T00:16:49.740Z,6.18
2023-01-10T00:19:15.939Z,6.18
2023-01-10T00:21:42.173Z,6.22
2023-01-10T00:24:08.366Z,6.25
2023-01-10T00:26:34.535Z,6.18
2023-01-10T00:29:00.679Z,6.16
2023-01-10T00:31:26.964Z,6.17
2023-01-10T00:33:53.178Z,6.23
2023-01-10T00:36:19.319Z,6.18
2023-01-10T00:38:45.491Z,6.24
2023-01-10T00:41:11.643Z,6.18
2023-01-10T00:43:37.866Z,6.20
2023-01-10T00:46:04.063Z,6.19
2023-01-10T00:48:30.260Z,6.19
2023-01-10T00:50:56.416Z,6.26
2023-01-10T00:53:22.573Z,6.29
2023-01-10T00:55:48.816Z,6.26
2023-01-10T00:58:15.008Z,6.21
2023-01-10T01:00:41.178Z,6.19
2023-01-10T01:03:07.314Z,6.25
2023-01-10T01:05:33.583Z,6.24
2023-01-10T01:07:59.744Z,6.21
2023-01-10T01:10:25.972Z,6.24
2023-01-10T01:12:52.193Z,6.35
2023-01-10T01:15:18.371Z,6.47
2023-01-10T01:17:44.635Z,6.50
2023-01-10T01:20:10.861Z,6.50
2023-01-10T01:22:37.012Z,6.52
2023-01-10T01:25:03.210Z,6.46
2023-01-10T01:27:29.360Z,6.49
2023-01-10T01:29:55.708Z,6.47
2023-01-10T01:32:21.907Z,6.48
2023-01-10T01:34:48.229Z,6.53
2023-01-10T01:37:14.438Z,6.50
2023-01-10T01:39:40.619Z,6.53
2023-01-10T01:42:06.777Z,6.52
2023-01-10T01:44:33.047Z,6.47
2023-01-10T01:46:59.218Z,6.44
2023-01-10T01:49:25.427Z,6.45
2023-01-10T01:51:51.568Z,6.43
2023-01-10T01:54:17.738Z,6.39
2023-01-10T01:56:43.886Z,6.37
2023-01-10T01:59:10.068Z,6.38
2023-01-10T02:01:36.322Z,6.36
2023-01-10T02:04:02.507Z,6.32
2023-01-10T02:06:28.665Z,6.31
2023-01-10T02:08:54.868Z,6.30
2023-01-10T02:11:21.043Z,6.32
2023-01-10T02:13:47.243Z,6.31
2023-01-10T02:16:13.415Z,6.29
2023-01-10T02:18:39.669Z,6.29
2023-01-10T02:21:05.853Z,6.28
2023-01-10T02:23:32.012Z,6.29
2023-01-10T02:25:58.209Z,6.38
2023-01-10T02:28:24.407Z,6.36
2023-01-10T02:30:50.581Z,6.43
2023-01-10T02:33:16.744Z,6.43
2023-01-10T02:35:42.922Z,6.48
2023-01-10T02:38:09.089Z,6.44
2023-01-10T02:40:35.322Z,6.47
2023-01-10T02:43:01.483Z,6.46
2023-01-10T02:45:27.647Z,6.43
2023-01-10T02:47:53.814Z,6.39
2023-01-10T02:50:20.038Z,6.38
2023-01-10T02:52:46.251Z,6.32
2023-01-10T02:55:12.410Z,6.32
2023-01-10T02:57:38.617Z,6.25
2023-01-10T03:00:04.831Z,6.19
2023-01-10T03:02:31.023Z,6.12
2023-01-10T03:04:57.295Z,6.20
2023-01-10T03:07:23.564Z,6.14
2023-01-10T03:09:49.786Z,6.11
2023-01-10T03:12:16.012Z,6.07
2023-01-10T03:14:42.219Z,6.16
2023-01-10T03:17:08.504Z,6.12
2023-01-10T03:19:34.648Z,6.16
2023-01-10T03:22:01.119Z,6.18
2023-01-10T03:24:27.309Z,6.21
2023-01-10T03:26:53.472Z,6.27
2023-01-10T03:29:19.710Z,6.27
2023-01-10T03:31:45.955Z,6.23
2023-01-10T03:34:12.169Z,6.21
2023-01-10T03:36:38.387Z,6.25
2023-01-10T03:39:04.556Z,6.17
2023-01-10T03:41:30.713Z,6.16
2023-01-10T03:43:56.856Z,6.16
2023-01-10T03:46:23.016Z,6.12
2023-01-10T03:48:49.177Z,6.10
2023-01-10T03:51:15.368Z,6.15
2023-01-10T03:53:41.508Z,6.18
2023-01-10T03:56:07.700Z,6.21
2023-01-10T03:58:33.823Z,6.18
2023-01-10T04:01:00.170Z,6.22
2023-01-10T04:03:26.469Z,6.25
2023-01-10T04:05:52.584Z,6.25
2023-01-10T04:08:18.785Z,6.24
2023-01-10T04:10:44.987Z,6.29
2023-01-10T04:13:11.171Z,6.32
2023-01-10T04:15:37.384Z,6.29
2023-01-10T04:18:03.555Z,6.36
2023-01-10T04:20:29.725Z,6.31
2023-01-10T04:22:55.860Z,6.38
2023-01-10T04:25:22.068Z,6.38
2023-01-10T04:27:48.217Z,6.37
2023-01-10T04:30:14.410Z,6.41
2023-01-10T04:32:40.559Z,6.40
2023-01-10T04:35:06.748Z,6.40
2023-01-10T04:37:32.909Z,6.44
2023-01-10T04:39:59.100Z,6.42
2023-01-10T04:42:25.290Z,6.41
2023-01-10T04:44:51.448Z,6.43
2023-01-10T04:47:17.675Z,6.43
2023-01-10T04:49:43.848Z,6.36
2023-01-10T04:52:10.033Z,6.31
2023-01-10T04:54:36.244Z,6.26
2023-01-10T04:57:02.487Z,6.34
2023-01-10T04:59:28.703Z,6.28
2023-01-10T05:01:54.985Z,6.28
2023-01-10T05:04:21.186Z,6.35
2023-01-10T05:06:47.411Z,6.36
2023-01-10T05:09:13.600Z,6.24
2023-01-10T05:11:39.808Z,6.19
2023-01-10T05:14:06.030Z,6.13
2023-01-10T05:16:32.267Z,6.15
2023-01-10T05:18:58.437Z,6.10
2023-01-10T05:21:24.666Z,6.01
2023-01-10T05:23:50.924Z,6.01
2023-01-10T05:26:17.406Z,5.99
2023-01-10T05:28:43.690Z,5.96
2023-01-10T05:31:09.921Z,5.90
2023-01-10T05:33:36.075Z,5.87
2023-01-10T05:36:02.269Z,5.83
2023-01-10T05:38:28.501Z,5.79
2023-01-10T05:40:54.686Z,5.74
2023-01-10T05:43:20.911Z,5.73
2023-01-10T05:45:47.107Z,5.69
2023-01-10T05:48:13.316Z,5.71
2023-01-10T05:50:39.461Z,5.67
2023-01-10T05:53:05.705Z,5.68
2023-01-10T05:55:31.969Z,5.72
2023-01-10T05:57:58.388Z,5.75
2023-01-10T06:00:25.194Z,5.79
2023-01-10T06:02:51.545Z,5.82
2023-01-10T06:05:17.772Z,5.92
2023-01-10T06:07:43.965Z,5.90
2023-01-10T06:10:10.184Z,5.90
2023-01-10T06:12:36.387Z,5.94
2023-01-10T06:15:02.595Z,5.94
2023-01-10T06:17:28.805Z,5.94
2023-01-10T06:19:55.007Z,5.92
2023-01-10T06:22:21.180Z,5.94
2023-01-10T06:24:47.339Z,5.94
2023-01-10T06:27:13.474Z,5.93
2023-01-10T06:29:39.664Z,6.00
2023-01-10T06:32:05.821Z,6.04
2023-01-10T06:34:32.049Z,5.99
2023-01-10T06:36:58.223Z,6.06
2023-01-10T06:39:24.420Z,6.11
2023-01-10T06:41:50.560Z,6.08
2023-01-10T06:44:16.782Z,6.02
2023-01-10T06:46:42.975Z,6.00
2023-01-10T06:49:09.364Z,6.00
2023-01-10T06:51:35.512Z,5.97
2023-01-10T06:54:01.741Z,6.05
2023-01-10T06:56:27.948Z,6.03
2023-01-10T06:58:54.189Z,6.05
2023-01-10T07:01:20.453Z,6.07
2023-01-10T07:03:46.788Z,6.09
2023-01-10T07:06:13.040Z,6.13
2023-01-10T07:08:39.412Z,6.00
2023-01-10T07:11:05.593Z,6.00
2023-01-10T07:13:31.751Z,5.97
2023-01-10T07:15:57.956Z,5.95
2023-01-10T07:18:24.140Z,5.92
2023-01-10T07:20:50.336Z,5.92
2023-01-10T07:23:17.210Z,5.94
2023-01-10T07:25:50.810Z,6.06
2023-01-10T07:28:16.985Z,5.97
2023-01-10T07:30:43.152Z,6.03
2023-01-10T07:33:09.323Z,6.06
2023-01-10T07:35:35.522Z,6.09
2023-01-10T07:38:01.664Z,6.07
2023-01-10T07:40:27.896Z,6.06
2023-01-10T07:42:54.043Z,6.08
2023-01-10T07:45:20.188Z,6.08
2023-01-10T07:47:46.388Z,6.10
2023-01-10T07:50:12.594Z,6.06
2023-01-10T07:52:38.814Z,6.05
2023-01-10T07:55:05.049Z,6.04
2023-01-10T07:57:31.213Z,6.01
2023-01-10T07:59:57.501Z,5.98
2023-01-10T08:02:23.768Z,5.93
2023-01-10T08:04:50.014Z,5.96
2023-01-10T08:07:16.195Z,5.91
2023-01-10T08:09:42.736Z,5.95
2023-01-10T08:12:08.972Z,6.06
2023-01-10T08:14:35.209Z,6.11
2023-01-10T08:17:01.423Z,6.12
2023-01-10T08:19:27.650Z,6.15
2023-01-10T08:21:53.871Z,6.25
2023-01-10T08:24:20.080Z,6.28
2023-01-10T08:26:46.295Z,6.27
2023-01-10T08:29:12.476Z,6.28
2023-01-10T08:31:38.767Z,6.31
2023-01-10T08:34:04.932Z,6.32
2023-01-10T08:36:31.109Z,6.42
2023-01-10T08:38:57.283Z,6.36
2023-01-10T08:41:23.451Z,6.42
2023-01-10T08:43:49.668Z,6.31
2023-01-10T08:46:15.896Z,6.30
2023-01-10T08:48:42.215Z,6.32
2023-01-10T08:51:08.460Z,6.31
2023-01-10T08:53:34.681Z,6.28
2023-01-10T08:56:00.862Z,6.39
2023-01-10T08:58:27.073Z,6.49
2023-01-10T09:00:53.278Z,6.53
2023-01-10T09:03:19.617Z,6.52
2023-01-10T09:05:45.841Z,6.48
2023-01-10T09:08:12.012Z,6.58
2023-01-10T09:10:38.240Z,6.61
2023-01-10T09:13:04.427Z,6.66
2023-01-10T09:15:30.631Z,6.56
2023-01-10T09:17:56.832Z,6.67
2023-01-10T09:20:22.973Z,6.71
2023-01-10T09:22:49.121Z,6.77
2023-01-10T09:25:15.373Z,6.79
2023-01-10T09:27:41.621Z,6.82
2023-01-10T09:30:07.789Z,6.88
2023-01-10T09:32:34.007Z,6.96
2023-01-10T09:35:00.196Z,6.96
2023-01-10T09:37:26.383Z,6.95
2023-01-10T09:39:52.604Z,6.93
2023-01-10T09:42:18.801Z,6.87
2023-01-10T09:44:44.929Z,6.90
2023-01-10T09:47:21.767Z,6.92
2023-01-10T09:49:48.821Z,6.97
2023-01-10T09:52:14.990Z,6.92
2023-01-10T09:54:41.172Z,7.02
2023-01-10T09:57:07.299Z,7.00
2023-01-10T09:59:33.561Z,7.03
2023-01-10T10:01:59.742Z,6.96
2023-01-10T10:04:26.028Z,6.91
2023-01-10T10:06:52.327Z,6.82
2023-01-10T10:09:18.568Z,6.89
2023-01-10T10:11:44.786Z,7.01
2023-01-10T10:14:10.966Z,7.05
2023-01-10T10:16:37.135Z,7.08
2023-01-10T10:19:03.348Z,7.14
2023-01-10T10:21:29.519Z,7.11
2023-01-10T10:23:55.745Z,7.16
2023-01-10T10:26:21.907Z,7.24
2023-01-10T10:28:54.719Z,7.28
2023-01-10T10:31:21.584Z,7.39
2023-01-10T10:33:48.946Z,7.49
2023-01-10T10:36:15.229Z,7.50
2023-01-10T10:38:41.455Z,7.49
2023-01-10T10:41:07.663Z,7.49
2023-01-10T10:43:33.884Z,7.44
2023-01-10T10:46:00.164Z,7.37
2023-01-10T10:48:26.398Z,7.48
2023-01-10T10:50:52.687Z,7.44
2023-01-10T10:53:18.837Z,7.46
2023-01-10T10:55:45.030Z,7.47
2023-01-10T10:58:11.280Z,7.40
2023-01-10T11:00:37.524Z,7.47
2023-01-10T11:03:03.798Z,7.42
2023-01-10T11:05:29.942Z,7.44
2023-01-10T11:07:56.151Z,7.54
2023-01-10T11:10:22.298Z,7.54
2023-01-10T11:12:48.437Z,7.61
2023-01-10T11:15:14.585Z,7.65
2023-01-10T11:17:40.767Z,7.63
2023-01-10T11:20:06.939Z,7.67
2023-01-10T11:22:33.069Z,7.58
2023-01-10T11:24:59.302Z,7.61
2023-01-10T11:27:25.471Z,7.75
2023-01-10T11:29:51.701Z,7.77
2023-01-10T11:32:17.885Z,7.84
2023-01-10T11:34:44.125Z,8.12
2023-01-10T11:37:10.384Z,8.57
2023-01-10T11:39:36.603Z,8.28
2023-01-10T11:42:02.803Z,8.28
2023-01-10T11:44:29.066Z,8.18
2023-01-10T11:46:55.231Z,8.23
2023-01-10T11:49:21.522Z,8.14
2023-01-10T11:51:47.788Z,8.13
2023-01-10T11:54:13.947Z,8.11
2023-01-10T11:56:40.144Z,8.02
2023-01-10T11:59:06.349Z,8.18
2023-01-10T12:01:32.577Z,8.09
2023-01-10T12:03:58.841Z,8.18
2023-01-10T12:06:25.115Z,8.04
2023-01-10T12:08:51.399Z,7.98
2023-01-10T12:11:17.580Z,8.00
2023-01-10T12:13:43.738Z,7.92
2023-01-10T12:16:09.948Z,7.85
2023-01-10T12:18:36.107Z,7.94
2023-01-10T12:21:02.336Z,7.95
2023-01-10T12:23:28.486Z,7.92
2023-01-10T12:26:07.130Z,7.86
2023-01-10T12:28:37.492Z,7.84
2023-01-10T12:31:03.718Z,7.85
2023-01-10T12:33:29.955Z,7.88
2023-01-10T12:35:56.155Z,7.85
2023-01-10T12:38:22.337Z,7.94
2023-01-10T12:40:48.664Z,8.04
2023-01-10T12:43:14.946Z,8.04
2023-01-10T12:45:41.160Z,8.04
2023-01-10T12:48:09.283Z,8.05
2023-01-10T12:50:35.493Z,8.14
2023-01-10T12:53:01.807Z,8.07
2023-01-10T12:55:28.031Z,8.23
2023-01-10T12:57:54.529Z,8.18
2023-01-10T13:00:20.803Z,8.19
2023-01-10T13:02:47.176Z,8.08
2023-01-10T13:05:13.577Z,8.07
2023-01-10T13:07:39.789Z,8.06
2023-01-10T13:10:07.032Z,7.98
2023-01-10T13:12:34.635Z,7.93
2023-01-10T13:15:00.826Z,7.95
2023-01-10T13:17:27.024Z,8.04
2023-01-10T13:19:53.386Z,7.96
2023-01-10T13:22:19.584Z,7.95
2023-01-10T13:24:45.861Z,7.96
2023-01-10T13:27:12.057Z,8.00
2023-01-10T13:29:39.790Z,8.16
2023-01-10T13:32:06.034Z,8.17
2023-01-10T13:34:32.212Z,8.23
2023-01-10T13:36:58.419Z,8.31
2023-01-10T13:39:24.647Z,8.40
2023-01-10T13:41:50.849Z,8.36
2023-01-10T13:44:17.065Z,8.41
2023-01-10T13:46:43.258Z,8.43
2023-01-10T13:49:09.447Z,8.32
2023-01-10T13:51:35.669Z,8.33
2023-01-10T13:54:01.876Z,8.25
2023-01-10T13:56:28.089Z,8.24
2023-01-10T13:58:54.251Z,8.33
2023-01-10T14:01:20.613Z,8.32
2023-01-10T14:03:48.407Z,8.18
2023-01-10T14:06:16.518Z,8.16
2023-01-10T14:08:42.783Z,8.12
2023-01-10T14:11:10.138Z,8.18
2023-01-10T14:13:36.670Z,8.07
2023-01-10T14:16:04.966Z,8.04
2023-01-10T14:18:31.248Z,8.09
2023-01-10T14:20:57.443Z,8.09
2023-01-10T14:23:23.647Z,8.00
2023-01-10T14:25:49.843Z,7.97
2023-01-10T14:28:16.042Z,7.95
2023-01-10T14:30:42.170Z,7.93
2023-01-10T14:33:08.345Z,7.95
2023-01-10T14:35:34.524Z,7.86
2023-01-10T14:38:00.702Z,7.80
2023-01-10T14:40:26.931Z,7.80
2023-01-10T14:42:53.170Z,7.72
2023-01-10T14:45:19.339Z,7.71
2023-01-10T14:47:45.519Z,7.65
2023-01-10T14:50:11.768Z,7.65
2023-01-10T14:52:37.931Z,7.63
2023-01-10T14:55:04.362Z,7.64
2023-01-10T14:57:30.595Z,7.52
2023-01-10T14:59:56.780Z,7.51
2023-01-10T15:02:23.055Z,7.53
2023-01-10T15:04:49.456Z,7.56
2023-01-10T15:07:15.702Z,7.48
2023-01-10T15:09:41.953Z,7.57
2023-01-10T15:12:08.185Z,7.53
2023-01-10T15:14:34.441Z,7.58
2023-01-10T15:17:00.740Z,7.46
2023-01-10T15:19:26.908Z,7.44
2023-01-10T15:21:53.084Z,7.45
2023-01-10T15:24:19.380Z,7.48
2023-01-10T15:26:45.614Z,7.48
2023-01-10T15:29:11.792Z,7.46
2023-01-10T15:31:38.125Z,7.43
2023-01-10T15:34:04.406Z,7.32
2023-01-10T15:36:30.586Z,7.28
2023-01-10T15:38:56.761Z,7.16
2023-01-10T15:41:22.955Z,7.21
2023-01-10T15:43:49.209Z,7.18
2023-01-10T15:46:15.382Z,7.12
2023-01-10T15:48:41.628Z,7.04
2023-01-10T15:51:07.806Z,7.11
2023-01-10T15:53:34.009Z,7.10
2023-01-10T15:56:00.223Z,7.12
2023-01-10T15:58:29.127Z,7.03
2023-01-10T16:00:55.363Z,7.06
2023-01-10T16:03:21.767Z,6.95
2023-01-10T16:05:47.966Z,6.92
2023-01-10T16:08:14.186Z,6.90
2023-01-10T16:10:46.350Z,6.88
2023-01-10T16:16:03.619Z,6.83
2023-01-10T16:18:32.698Z,6.75
2023-01-10T16:20:58.911Z,6.66
2023-01-10T16:23:25.258Z,6.64
2023-01-10T16:25:54.460Z,6.59
2023-01-10T16:28:22.593Z,6.61
2023-01-10T16:30:48.823Z,6.62
2023-01-10T16:33:17.773Z,6.64
2023-01-10T16:35:46.830Z,6.57
2023-01-10T16:38:16.625Z,6.58
2023-01-10T16:40:42.823Z,6.47
2023-01-10T16:43:09.287Z,6.45
2023-01-10T16:45:35.511Z,6.46
2023-01-10T16:48:03.518Z,6.54
2023-01-10T16:50:29.744Z,6.48
2023-01-10T16:52:55.925Z,6.58
2023-01-10T16:55:22.064Z,6.60
2023-01-10T16:57:48.338Z,6.57
2023-01-10T17:00:14.612Z,6.60
2023-01-10T17:05:26.482Z,6.58
2023-01-10T17:07:55.379Z,6.60
2023-01-10T17:10:21.577Z,6.64
2023-01-10T17:15:31.988Z,6.61
2023-01-10T17:17:58.975Z,6.63
2023-01-10T17:20:25.518Z,6.57
2023-01-10T17:22:51.795Z,6.56
2023-01-10T17:25:18.492Z,6.63
2023-01-10T17:27:47.731Z,6.70
2023-01-10T17:30:13.942Z,6.72
2023-01-10T17:35:30.530Z,6.77
2023-01-10T17:37:56.746Z,6.75
2023-01-10T17:40:22.920Z,6.70
2023-01-10T17:42:50.400Z,6.74
2023-01-10T17:45:16.586Z,6.77
2023-01-10T17:47:43.010Z,6.80
2023-01-10T17:50:09.205Z,6.83
2023-01-10T17:52:36.077Z,6.75
2023-01-10T17:55:02.297Z,6.77
2023-01-10T17:57:28.533Z,6.79
2023-01-10T17:59:54.771Z,6.75
2023-01-10T18:02:21.437Z,6.77
2023-01-10T18:04:48.088Z,6.76
2023-01-10T18:07:14.287Z,6.81
2023-01-10T18:09:40.576Z,6.81
2023-01-10T18:12:06.969Z,6.92
2023-01-10T18:14:33.193Z,6.84
2023-01-10T18:16:59.613Z,6.84
2023-01-10T18:19:25.850Z,6.80
2023-01-10T18:21:53.091Z,6.84
2023-01-10T18:24:19.403Z,6.84
2023-01-10T18:26:45.668Z,6.89
2023-01-10T18:29:12.887Z,6.92
2023-01-10T18:31:39.182Z,7.00
2023-01-10T18:34:07.858Z,7.03
2023-01-10T18:36:34.060Z,7.02
2023-01-10T18:39:00.268Z,7.07
2023-01-10T18:41:26.506Z,6.99
2023-01-10T18:43:52.842Z,6.97
2023-01-10T18:46:19.113Z,6.96
2023-01-10T18:48:45.401Z,6.92
2023-01-10T18:51:14.388Z,6.92
2023-01-10T18:53:40.640Z,6.94
2023-01-10T18:56:06.930Z,6.92
2023-01-10T18:58:33.128Z,6.93
2023-01-10T19:00:59.359Z,6.94
2023-01-10T19:03:25.581Z,6.92
2023-01-10T19:05:51.926Z,6.92
2023-01-10T19:08:18.508Z,6.87
2023-01-10T19:11:07.459Z,6.91
2023-01-10T19:13:31.015Z,6.88
2023-01-10T19:15:57.253Z,6.86
2023-01-10T19:18:23.448Z,6.93
2023-01-10T19:20:50.635Z,6.89
2023-01-10T19:23:16.875Z,6.89
2023-01-10T19:25:43.048Z,6.83
2023-01-10T19:28:09.255Z,6.85
2023-01-10T19:30:35.422Z,6.87
2023-01-10T19:33:01.759Z,6.82
2023-01-10T19:35:27.979Z,6.77
2023-01-10T19:37:54.194Z,6.80
2023-01-10T19:40:22.043Z,6.76
2023-01-10T19:42:48.261Z,6.74
2023-01-10T19:45:14.488Z,6.72
2023-01-10T19:47:40.726Z,6.61
2023-01-10T19:50:07.061Z,6.60
2023-01-10T19:52:33.891Z,6.62
2023-01-10T19:55:00.355Z,6.62
2023-01-10T19:57:26.671Z,6.60
2023-01-10T19:59:52.900Z,6.55
2023-01-10T20:02:19.246Z,6.56
2023-01-10T20:04:45.576Z,6.54
2023-01-10T20:07:11.876Z,6.58
2023-01-10T20:09:43.443Z,6.55
2023-01-10T20:12:09.647Z,6.53
2023-01-10T20:14:35.885Z,6.53
2023-01-10T20:17:02.107Z,6.56
2023-01-10T20:19:28.310Z,6.53
2023-01-10T20:21:54.484Z,6.55
2023-01-10T20:24:20.720Z,6.56
2023-01-10T20:26:47.388Z,6.59
2023-01-10T20:29:13.640Z,6.58
2023-01-10T20:31:39.950Z,6.59
2023-01-10T20:34:06.240Z,6.57
2023-01-10T20:36:32.653Z,6.59
2023-01-10T20:38:58.867Z,6.59
2023-01-10T20:41:25.072Z,6.61
2023-01-10T20:43:51.500Z,6.65
2023-01-10T20:46:18.026Z,6.68
2023-01-10T20:48:44.415Z,6.76
2023-01-10T20:51:15.147Z,6.74
2023-01-10T20:53:41.391Z,6.77
2023-01-10T20:56:11.707Z,6.79
2023-01-10T20:58:37.992Z,6.82
2023-01-10T21:01:04.176Z,6.84
2023-01-10T21:03:30.355Z,6.89
2023-01-10T21:05:56.582Z,6.85
2023-01-10T21:08:22.778Z,6.83
2023-01-10T21:10:48.979Z,6.85
2023-01-10T21:13:15.211Z,6.79
2023-01-10T21:15:41.459Z,6.85
2023-01-10T21:18:09.691Z,6.85
2023-01-10T21:20:36.031Z,6.88
2023-01-10T21:23:02.259Z,6.95
2023-01-10T21:25:29.734Z,6.93
2023-01-10T21:27:55.925Z,6.94
2023-01-10T21:33:12.318Z,7.01
2023-01-10T21:35:38.498Z,7.06
2023-01-10T21:38:04.679Z,7.03
2023-01-10T21:40:30.893Z,7.02
2023-01-10T21:42:57.077Z,7.06
2023-01-10T21:45:23.278Z,7.02
2023-01-10T21:47:49.451Z,7.09
2023-01-10T21:50:15.728Z,7.14
2023-01-10T21:52:41.923Z,7.20
2023-01-10T21:55:08.133Z,7.20
2023-01-10T21:57:34.274Z,7.25
2023-01-10T22:00:00.436Z,7.26
2023-01-10T22:02:26.684Z,7.31
2023-01-10T22:04:52.909Z,7.29
2023-01-10T22:07:20.322Z,7.26
2023-01-10T22:09:46.473Z,7.21
2023-01-10T22:12:12.711Z,7.23
2023-01-10T22:14:38.893Z,7.26
2023-01-10T22:17:05.077Z,7.27
2023-01-10T22:19:31.270Z,7.32
2023-01-10T22:21:57.470Z,7.26
2023-01-10T22:24:23.633Z,7.25
2023-01-10T22:26:49.852Z,7.28
2023-01-10T22:29:16.024Z,7.18
2023-01-10T22:31:42.284Z,7.20
2023-01-10T22:34:08.521Z,7.25
2023-01-10T22:36:34.710Z,7.35
2023-01-10T22:39:00.976Z,7.36
2023-01-10T22:41:27.143Z,7.41
2023-01-10T22:43:53.321Z,7.47
2023-01-10T22:46:19.508Z,7.47
2023-01-10T22:48:45.878Z,7.54
2023-01-10T22:51:12.095Z,7.65
2023-01-10T22:53:38.527Z,7.63
2023-01-10T22:56:04.738Z,7.62
2023-01-10T22:58:31.007Z,7.76
2023-01-10T23:00:57.164Z,7.80
2023-01-10T23:03:23.361Z,7.76
2023-01-10T23:05:49.693Z,7.80
2023-01-10T23:08:16.035Z,7.77
2023-01-10T23:10:42.231Z,7.89
2023-01-10T23:13:08.464Z,7.89
2023-01-10T23:15:34.704Z,7.93
2023-01-10T23:18:00.885Z,8.01
2023-01-10T23:20:27.076Z,7.99
2023-01-10T23:22:53.279Z,8.03
2023-01-10T23:25:19.518Z,8.01
2023-01-10T23:27:45.756Z,7.99
2023-01-10T23:30:11.961Z,8.03
2023-01-10T23:32:38.182Z,8.02
2023-01-10T23:35:04.400Z,7.85
2023-01-10T23:37:30.668Z,7.82
2023-01-10T23:39:56.886Z,7.78
2023-01-10T23:42:23.127Z,7.79
2023-01-10T23:44:49.447Z,7.84
2023-01-10T23:47:15.681Z,7.93
2023-01-10T23:49:41.847Z,7.95
2023-01-10T23:52:08.046Z,7.98
2023-01-10T23:54:34.215Z,7.97
2023-01-10T23:57:00.331Z,8.02
2023-01-10T23:59:26.513Z,8.06
